sensor_id;sensor_type;location;lat;lon;timestamp;pressure;altitude;pressure_sealevel;temperature;humidity
56176;BME280;63065;51.082;17.016;2023-05-23T00:01:14;100071.38;;;14.46;100.00
56176;BME280;63065;51.082;17.016;2023-05-23T00:03:34;100066.97;;;14.20;100.00
56176;BME280;63065;51.082;17.016;2023-05-23T00:06:01;100065.22;;;14.42;100.00
56176;BME280;63065;51.082;17.016;2023-05-23T00:08:26;100062.00;;;14.19;100.00
56176;BME280;63065;51.082;17.016;2023-05-23T00:10:51;100058.54;;;14.26;100.00
56176;BME280;63065;51.082;17.016;2023-05-23T00:13:17;100057.01;;;13.91;100.00
56176;BME280;63065;51.082;17.016;2023-05-23T00:15:43;100058.73;;;14.27;100.00
56176;BME280;63065;51.082;17.016;2023-05-23T00:18:09;100060.30;;;14.01;100.00
56176;BME280;63065;51.082;17.016;2023-05-23T00:20:44;100059.44;;;13.95;100.00
56176;BME280;63065;51.082;17.016;2023-05-23T00:22:59;100057.58;;;14.09;100.00
56176;BME280;63065;51.082;17.016;2023-05-23T00:25:25;100056.46;;;13.93;100.00
56176;BME280;63065;51.082;17.016;2023-05-23T00:27:50;100058.25;;;14.07;100.00
56176;BME280;63065;51.082;17.016;2023-05-23T00:30:16;100059.26;;;14.16;100.00
56176;BME280;63065;51.082;17.016;2023-05-23T00:32:41;100057.34;;;13.86;100.00
56176;BME280;63065;51.082;17.016;2023-05-23T00:35:08;100055.67;;;14.00;100.00
56176;BME280;63065;51.082;17.016;2023-05-23T00:37:33;100055.02;;;14.25;100.00
56176;BME280;63065;51.082;17.016;2023-05-23T00:39:59;100054.11;;;13.96;100.00
56176;BME280;63065;51.082;17.016;2023-05-23T00:42:25;100051.84;;;14.17;100.00
56176;BME280;63065;51.082;17.016;2023-05-23T00:44:50;100053.37;;;14.15;100.00
56176;BME280;63065;51.082;17.016;2023-05-23T00:47:16;100053.25;;;13.72;100.00
56176;BME280;63065;51.082;17.016;2023-05-23T00:49:41;100050.05;;;14.27;100.00
56176;BME280;63065;51.082;17.016;2023-05-23T00:52:06;100054.16;;;13.93;100.00
56176;BME280;63065;51.082;17.016;2023-05-23T00:54:33;100052.14;;;13.99;100.00
56176;BME280;63065;51.082;17.016;2023-05-23T00:56:58;100047.10;;;14.01;100.00
56176;BME280;63065;51.082;17.016;2023-05-23T00:59:33;100043.26;;;13.68;100.00
56176;BME280;63065;51.082;17.016;2023-05-23T01:01:50;100045.45;;;14.04;100.00
56176;BME280;63065;51.082;17.016;2023-05-23T01:04:14;100044.70;;;13.93;100.00
56176;BME280;63065;51.082;17.016;2023-05-23T01:06:40;100046.26;;;13.90;100.00
56176;BME280;63065;51.082;17.016;2023-05-23T01:09:06;100046.79;;;13.82;100.00
56176;BME280;63065;51.082;17.016;2023-05-23T01:11:35;100047.50;;;13.87;100.00
56176;BME280;63065;51.082;17.016;2023-05-23T01:14:03;100044.22;;;13.51;100.00
56176;BME280;63065;51.082;17.016;2023-05-23T01:16:30;100044.12;;;13.62;100.00
56176;BME280;63065;51.082;17.016;2023-05-23T01:18:53;100041.32;;;13.74;100.00
56176;BME280;63065;51.082;17.016;2023-05-23T01:21:16;100043.99;;;13.89;100.00
56176;BME280;63065;51.082;17.016;2023-05-23T01:23:54;100045.03;;;13.45;100.00
56176;BME280;63065;51.082;17.016;2023-05-23T01:26:15;100046.70;;;13.52;100.00
56176;BME280;63065;51.082;17.016;2023-05-23T01:28:34;100046.34;;;13.56;100.00
56176;BME280;63065;51.082;17.016;2023-05-23T01:30:57;100044.99;;;13.33;100.00
56176;BME280;63065;51.082;17.016;2023-05-23T01:33:21;100042.20;;;13.60;100.00
56176;BME280;63065;51.082;17.016;2023-05-23T01:35:46;100043.25;;;13.24;100.00
56176;BME280;63065;51.082;17.016;2023-05-23T01:38:11;100039.63;;;13.68;100.00
56176;BME280;63065;51.082;17.016;2023-05-23T01:40:37;100039.40;;;13.18;100.00
56176;BME280;63065;51.082;17.016;2023-05-23T01:43:02;100040.20;;;13.14;100.00
56176;BME280;63065;51.082;17.016;2023-05-23T01:45:28;100033.96;;;13.16;100.00
56176;BME280;63065;51.082;17.016;2023-05-23T01:47:53;100035.11;;;13.64;100.00
56176;BME280;63065;51.082;17.016;2023-05-23T01:50:19;100031.74;;;12.69;100.00
56176;BME280;63065;51.082;17.016;2023-05-23T01:52:45;100033.65;;;13.10;100.00
56176;BME280;63065;51.082;17.016;2023-05-23T01:55:11;100029.83;;;13.14;100.00
56176;BME280;63065;51.082;17.016;2023-05-23T01:57:36;100027.82;;;13.23;100.00
56176;BME280;63065;51.082;17.016;2023-05-23T02:00:02;100024.73;;;13.23;100.00
56176;BME280;63065;51.082;17.016;2023-05-23T02:02:27;100021.11;;;12.90;100.00
56176;BME280;63065;51.082;17.016;2023-05-23T02:04:53;100019.08;;;13.31;100.00
56176;BME280;63065;51.082;17.016;2023-05-23T02:07:18;100016.79;;;13.30;100.00
56176;BME280;63065;51.082;17.016;2023-05-23T02:09:43;100014.56;;;13.04;100.00
56176;BME280;63065;51.082;17.016;2023-05-23T02:12:09;100011.79;;;13.22;100.00
56176;BME280;63065;51.082;17.016;2023-05-23T02:14:35;100010.02;;;13.31;100.00
56176;BME280;63065;51.082;17.016;2023-05-23T02:17:00;100007.66;;;13.01;100.00
56176;BME280;63065;51.082;17.016;2023-05-23T02:19:26;100007.10;;;12.90;100.00
56176;BME280;63065;51.082;17.016;2023-05-23T02:21:51;100003.79;;;13.18;100.00
56176;BME280;63065;51.082;17.016;2023-05-23T02:24:16;99997.90;;;13.26;100.00
56176;BME280;63065;51.082;17.016;2023-05-23T02:26:41;99992.89;;;13.25;100.00
56176;BME280;63065;51.082;17.016;2023-05-23T02:29:07;99992.70;;;13.32;100.00
56176;BME280;63065;51.082;17.016;2023-05-23T02:31:33;99991.55;;;13.24;100.00
56176;BME280;63065;51.082;17.016;2023-05-23T02:33:58;99989.96;;;13.62;100.00
56176;BME280;63065;51.082;17.016;2023-05-23T02:36:24;99990.33;;;13.35;100.00
56176;BME280;63065;51.082;17.016;2023-05-23T02:38:49;99990.19;;;12.95;100.00
56176;BME280;63065;51.082;17.016;2023-05-23T02:41:15;99989.20;;;13.44;100.00
56176;BME280;63065;51.082;17.016;2023-05-23T02:43:40;99991.34;;;13.08;100.00
56176;BME280;63065;51.082;17.016;2023-05-23T02:46:06;99988.96;;;13.03;100.00
56176;BME280;63065;51.082;17.016;2023-05-23T02:48:32;99988.34;;;13.12;100.00
56176;BME280;63065;51.082;17.016;2023-05-23T02:50:57;99993.06;;;13.21;100.00
56176;BME280;63065;51.082;17.016;2023-05-23T02:53:22;99994.04;;;13.61;100.00
56176;BME280;63065;51.082;17.016;2023-05-23T02:55:47;99988.06;;;13.36;100.00
56176;BME280;63065;51.082;17.016;2023-05-23T02:58:13;99982.87;;;13.37;100.00
56176;BME280;63065;51.082;17.016;2023-05-23T03:00:37;99978.29;;;13.34;100.00
56176;BME280;63065;51.082;17.016;2023-05-23T03:03:08;99976.12;;;13.68;100.00
56176;BME280;63065;51.082;17.016;2023-05-23T03:05:28;99970.76;;;13.63;100.00
56176;BME280;63065;51.082;17.016;2023-05-23T03:07:54;99969.70;;;13.39;100.00
56176;BME280;63065;51.082;17.016;2023-05-23T03:10:20;99967.90;;;13.39;100.00
56176;BME280;63065;51.082;17.016;2023-05-23T03:12:46;99962.34;;;13.46;100.00
56176;BME280;63065;51.082;17.016;2023-05-23T03:15:11;99960.07;;;13.38;100.00
56176;BME280;63065;51.082;17.016;2023-05-23T03:17:36;99957.98;;;13.50;100.00
56176;BME280;63065;51.082;17.016;2023-05-23T03:20:02;99960.15;;;13.66;100.00
56176;BME280;63065;51.082;17.016;2023-05-23T03:22:27;99960.59;;;13.64;100.00
56176;BME280;63065;51.082;17.016;2023-05-23T03:24:52;99958.51;;;13.86;100.00
56176;BME280;63065;51.082;17.016;2023-05-23T03:27:17;99956.09;;;13.56;100.00
56176;BME280;63065;51.082;17.016;2023-05-23T03:29:43;99957.16;;;13.80;100.00
56176;BME280;63065;51.082;17.016;2023-05-23T03:32:08;99956.39;;;13.97;100.00
56176;BME280;63065;51.082;17.016;2023-05-23T03:34:33;99953.33;;;14.39;100.00
56176;BME280;63065;51.082;17.016;2023-05-23T03:36:59;99956.87;;;13.92;100.00
56176;BME280;63065;51.082;17.016;2023-05-23T03:39:26;99956.61;;;14.00;100.00
56176;BME280;63065;51.082;17.016;2023-05-23T03:41:49;99956.18;;;14.11;100.00
56176;BME280;63065;51.082;17.016;2023-05-23T03:44:15;99956.13;;;14.10;100.00
56176;BME280;63065;51.082;17.016;2023-05-23T03:46:41;99956.95;;;14.31;100.00
56176;BME280;63065;51.082;17.016;2023-05-23T03:49:06;99953.73;;;14.54;100.00
56176;BME280;63065;51.082;17.016;2023-05-23T03:51:36;99952.71;;;14.69;100.00
56176;BME280;63065;51.082;17.016;2023-05-23T03:53:57;99950.32;;;14.35;100.00
56176;BME280;63065;51.082;17.016;2023-05-23T03:56:22;99952.38;;;14.24;100.00
56176;BME280;63065;51.082;17.016;2023-05-23T03:58:47;99953.91;;;14.06;100.00
56176;BME280;63065;51.082;17.016;2023-05-23T04:01:13;99953.23;;;14.30;100.00
56176;BME280;63065;51.082;17.016;2023-05-23T04:03:38;99956.57;;;14.39;100.00
56176;BME280;63065;51.082;17.016;2023-05-23T04:06:04;99954.90;;;14.31;100.00
56176;BME280;63065;51.082;17.016;2023-05-23T04:08:29;99955.59;;;14.25;100.00
56176;BME280;63065;51.082;17.016;2023-05-23T04:10:54;99955.75;;;14.33;100.00
56176;BME280;63065;51.082;17.016;2023-05-23T04:13:20;99955.43;;;14.12;100.00
56176;BME280;63065;51.082;17.016;2023-05-23T04:15:46;99951.28;;;14.50;100.00
56176;BME280;63065;51.082;17.016;2023-05-23T04:18:11;99953.26;;;14.34;100.00
56176;BME280;63065;51.082;17.016;2023-05-23T04:20:37;99953.08;;;14.45;100.00
56176;BME280;63065;51.082;17.016;2023-05-23T04:23:03;99945.58;;;14.32;100.00
56176;BME280;63065;51.082;17.016;2023-05-23T04:25:28;99942.87;;;14.07;100.00
56176;BME280;63065;51.082;17.016;2023-05-23T04:27:54;99945.02;;;14.43;100.00
56176;BME280;63065;51.082;17.016;2023-05-23T04:30:19;99947.14;;;14.43;100.00
56176;BME280;63065;51.082;17.016;2023-05-23T04:32:44;99947.15;;;14.61;100.00
56176;BME280;63065;51.082;17.016;2023-05-23T04:35:10;99944.69;;;14.70;100.00
56176;BME280;63065;51.082;17.016;2023-05-23T04:37:35;99939.27;;;14.41;100.00
56176;BME280;63065;51.082;17.016;2023-05-23T04:40:00;99933.54;;;14.81;100.00
56176;BME280;63065;51.082;17.016;2023-05-23T04:42:26;99930.74;;;14.96;100.00
56176;BME280;63065;51.082;17.016;2023-05-23T04:44:51;99927.22;;;14.77;100.00
56176;BME280;63065;51.082;17.016;2023-05-23T04:47:17;99922.76;;;14.85;100.00
56176;BME280;63065;51.082;17.016;2023-05-23T04:49:42;99919.37;;;15.17;100.00
56176;BME280;63065;51.082;17.016;2023-05-23T04:52:08;99920.70;;;15.25;100.00
56176;BME280;63065;51.082;17.016;2023-05-23T04:54:33;99915.55;;;15.01;100.00
56176;BME280;63065;51.082;17.016;2023-05-23T04:56:59;99911.85;;;15.46;100.00
56176;BME280;63065;51.082;17.016;2023-05-23T04:59:25;99906.92;;;15.50;100.00
56176;BME280;63065;51.082;17.016;2023-05-23T05:01:49;99908.54;;;15.53;100.00
56176;BME280;63065;51.082;17.016;2023-05-23T05:04:15;99907.09;;;15.67;100.00
56176;BME280;63065;51.082;17.016;2023-05-23T05:06:41;99908.25;;;15.83;100.00
56176;BME280;63065;51.082;17.016;2023-05-23T05:09:07;99905.19;;;16.10;100.00
56176;BME280;63065;51.082;17.016;2023-05-23T05:11:33;99906.48;;;15.71;100.00
56176;BME280;63065;51.082;17.016;2023-05-23T05:13:58;99907.06;;;15.91;100.00
56176;BME280;63065;51.082;17.016;2023-05-23T05:16:28;99904.59;;;16.14;100.00
56176;BME280;63065;51.082;17.016;2023-05-23T05:18:49;99900.36;;;16.04;100.00
56176;BME280;63065;51.082;17.016;2023-05-23T05:21:14;99898.49;;;16.14;100.00
56176;BME280;63065;51.082;17.016;2023-05-23T05:23:40;99896.68;;;16.10;100.00
56176;BME280;63065;51.082;17.016;2023-05-23T05:26:05;99896.94;;;16.46;100.00
56176;BME280;63065;51.082;17.016;2023-05-23T05:28:31;99901.61;;;16.19;100.00
56176;BME280;63065;51.082;17.016;2023-05-23T05:31:01;99901.30;;;16.27;100.00
56176;BME280;63065;51.082;17.016;2023-05-23T05:33:22;99899.48;;;16.37;100.00
56176;BME280;63065;51.082;17.016;2023-05-23T05:35:47;99897.04;;;16.07;100.00
56176;BME280;63065;51.082;17.016;2023-05-23T05:38:12;99892.76;;;16.30;100.00
56176;BME280;63065;51.082;17.016;2023-05-23T05:40:38;99890.12;;;16.37;100.00
56176;BME280;63065;51.082;17.016;2023-05-23T05:43:03;99888.79;;;16.18;100.00
56176;BME280;63065;51.082;17.016;2023-05-23T05:45:34;99889.23;;;16.29;100.00
56176;BME280;63065;51.082;17.016;2023-05-23T05:47:54;99891.08;;;16.39;100.00
56176;BME280;63065;51.082;17.016;2023-05-23T05:50:20;99892.69;;;16.72;100.00
56176;BME280;63065;51.082;17.016;2023-05-23T05:52:45;99894.04;;;16.80;100.00
56176;BME280;63065;51.082;17.016;2023-05-23T05:55:11;99896.06;;;17.01;100.00
56176;BME280;63065;51.082;17.016;2023-05-23T05:57:36;99896.33;;;16.66;100.00
56176;BME280;63065;51.082;17.016;2023-05-23T06:00:01;99895.42;;;16.85;100.00
56176;BME280;63065;51.082;17.016;2023-05-23T06:02:27;99896.18;;;17.09;100.00
56176;BME280;63065;51.082;17.016;2023-05-23T06:04:53;99894.69;;;17.21;100.00
56176;BME280;63065;51.082;17.016;2023-05-23T06:07:18;99894.65;;;17.09;100.00
56176;BME280;63065;51.082;17.016;2023-05-23T06:09:44;99895.19;;;17.45;100.00
56176;BME280;63065;51.082;17.016;2023-05-23T06:12:09;99893.59;;;17.27;100.00
56176;BME280;63065;51.082;17.016;2023-05-23T06:14:34;99892.89;;;17.62;100.00
56176;BME280;63065;51.082;17.016;2023-05-23T06:17:00;99893.52;;;17.43;100.00
56176;BME280;63065;51.082;17.016;2023-05-23T06:19:26;99891.17;;;17.64;100.00
56176;BME280;63065;51.082;17.016;2023-05-23T06:21:51;99887.85;;;17.64;100.00
56176;BME280;63065;51.082;17.016;2023-05-23T06:24:16;99885.91;;;17.91;100.00
56176;BME280;63065;51.082;17.016;2023-05-23T06:26:42;99888.86;;;17.91;100.00
56176;BME280;63065;51.082;17.016;2023-05-23T06:29:14;99896.26;;;17.69;100.00
56176;BME280;63065;51.082;17.016;2023-05-23T06:31:33;99897.26;;;17.62;100.00
56176;BME280;63065;51.082;17.016;2023-05-23T06:33:59;99894.50;;;17.24;100.00
56176;BME280;63065;51.082;17.016;2023-05-23T06:36:24;99898.40;;;17.83;100.00
56176;BME280;63065;51.082;17.016;2023-05-23T06:38:49;99897.52;;;17.26;100.00
56176;BME280;63065;51.082;17.016;2023-05-23T06:41:15;99899.03;;;17.39;100.00
56176;BME280;63065;51.082;17.016;2023-05-23T06:43:41;99898.59;;;17.47;100.00
56176;BME280;63065;51.082;17.016;2023-05-23T06:46:06;99894.03;;;17.84;100.00
56176;BME280;63065;51.082;17.016;2023-05-23T06:48:31;99893.40;;;18.19;100.00
56176;BME280;63065;51.082;17.016;2023-05-23T06:50:57;99888.44;;;18.54;100.00
56176;BME280;63065;51.082;17.016;2023-05-23T06:53:22;99884.14;;;18.42;100.00
56176;BME280;63065;51.082;17.016;2023-05-23T06:55:48;99877.39;;;18.70;100.00
56176;BME280;63065;51.082;17.016;2023-05-23T06:58:13;99871.93;;;19.17;100.00
56176;BME280;63065;51.082;17.016;2023-05-23T07:00:39;99869.18;;;18.96;100.00
56176;BME280;63065;51.082;17.016;2023-05-23T07:03:05;99865.52;;;18.85;100.00
56176;BME280;63065;51.082;17.016;2023-05-23T07:05:29;99865.45;;;18.49;100.00
56176;BME280;63065;51.082;17.016;2023-05-23T07:07:55;99866.55;;;18.82;100.00
56176;BME280;63065;51.082;17.016;2023-05-23T07:10:20;99865.63;;;18.75;100.00
56176;BME280;63065;51.082;17.016;2023-05-23T07:12:46;99867.45;;;18.48;100.00
56176;BME280;63065;51.082;17.016;2023-05-23T07:15:12;99861.49;;;18.26;100.00
56176;BME280;63065;51.082;17.016;2023-05-23T07:17:46;99860.63;;;18.77;100.00
56176;BME280;63065;51.082;17.016;2023-05-23T07:20:02;99855.78;;;18.91;100.00
56176;BME280;63065;51.082;17.016;2023-05-23T07:22:27;99852.99;;;18.98;100.00
56176;BME280;63065;51.082;17.016;2023-05-23T07:24:53;99850.51;;;19.06;100.00
56176;BME280;63065;51.082;17.016;2023-05-23T07:27:18;99847.28;;;19.02;100.00
56176;BME280;63065;51.082;17.016;2023-05-23T07:29:44;99838.67;;;19.44;100.00
56176;BME280;63065;51.082;17.016;2023-05-23T07:32:09;99836.49;;;19.31;100.00
56176;BME280;63065;51.082;17.016;2023-05-23T07:34:34;99829.32;;;19.81;100.00
56176;BME280;63065;51.082;17.016;2023-05-23T07:37:00;99824.88;;;19.79;100.00
56176;BME280;63065;51.082;17.016;2023-05-23T07:39:26;99823.96;;;19.56;100.00
56176;BME280;63065;51.082;17.016;2023-05-23T07:41:50;99825.47;;;19.49;100.00
56176;BME280;63065;51.082;17.016;2023-05-23T07:44:17;99826.80;;;19.50;100.00
56176;BME280;63065;51.082;17.016;2023-05-23T07:46:41;99828.31;;;19.87;100.00
56176;BME280;63065;51.082;17.016;2023-05-23T07:49:07;99825.08;;;19.72;100.00
56176;BME280;63065;51.082;17.016;2023-05-23T07:51:33;99824.59;;;19.94;100.00
56176;BME280;63065;51.082;17.016;2023-05-23T07:53:58;99831.57;;;20.24;100.00
56176;BME280;63065;51.082;17.016;2023-05-23T07:56:23;99833.53;;;19.79;100.00
56176;BME280;63065;51.082;17.016;2023-05-23T07:58:49;99840.45;;;20.01;100.00
56176;BME280;63065;51.082;17.016;2023-05-23T08:01:15;99844.17;;;20.13;100.00
56176;BME280;63065;51.082;17.016;2023-05-23T08:03:40;99845.88;;;19.74;100.00
56176;BME280;63065;51.082;17.016;2023-05-23T08:06:06;99844.70;;;19.95;100.00
56176;BME280;63065;51.082;17.016;2023-05-23T08:08:32;99844.28;;;20.28;100.00
56176;BME280;63065;51.082;17.016;2023-05-23T08:10:57;99844.96;;;19.76;100.00
56176;BME280;63065;51.082;17.016;2023-05-23T08:13:23;99845.34;;;20.31;100.00
56176;BME280;63065;51.082;17.016;2023-05-23T08:15:48;99846.02;;;20.48;100.00
56176;BME280;63065;51.082;17.016;2023-05-23T08:18:14;99852.65;;;20.61;100.00
56176;BME280;63065;51.082;17.016;2023-05-23T08:20:40;99859.44;;;20.16;100.00
56176;BME280;63065;51.082;17.016;2023-05-23T08:23:05;99866.50;;;19.76;100.00
56176;BME280;63065;51.082;17.016;2023-05-23T08:25:30;99869.89;;;19.71;100.00
56176;BME280;63065;51.082;17.016;2023-05-23T08:27:56;99870.68;;;19.66;100.00
56176;BME280;63065;51.082;17.016;2023-05-23T08:30:21;99867.28;;;19.81;100.00
56176;BME280;63065;51.082;17.016;2023-05-23T08:32:46;99867.80;;;19.49;100.00
56176;BME280;63065;51.082;17.016;2023-05-23T08:35:12;99868.74;;;19.21;100.00
56176;BME280;63065;51.082;17.016;2023-05-23T08:37:37;99867.86;;;19.54;100.00
56176;BME280;63065;51.082;17.016;2023-05-23T08:40:03;99871.20;;;19.28;100.00
56176;BME280;63065;51.082;17.016;2023-05-23T08:42:28;99870.13;;;19.20;100.00
56176;BME280;63065;51.082;17.016;2023-05-23T08:44:53;99869.29;;;19.35;100.00
56176;BME280;63065;51.082;17.016;2023-05-23T08:47:18;99868.25;;;19.00;100.00
56176;BME280;63065;51.082;17.016;2023-05-23T08:49:44;99872.14;;;19.57;100.00
56176;BME280;63065;51.082;17.016;2023-05-23T08:52:17;99873.14;;;19.29;100.00
56176;BME280;63065;51.082;17.016;2023-05-23T08:54:34;99875.72;;;19.42;100.00
56176;BME280;63065;51.082;17.016;2023-05-23T08:56:59;99878.59;;;19.33;100.00
56176;BME280;63065;51.082;17.016;2023-05-23T08:59:30;99881.60;;;19.60;100.00
56176;BME280;63065;51.082;17.016;2023-05-23T09:01:51;99885.51;;;19.30;100.00
56176;BME280;63065;51.082;17.016;2023-05-23T09:04:16;99880.40;;;19.27;100.00
56176;BME280;63065;51.082;17.016;2023-05-23T09:06:42;99879.26;;;19.84;100.00
56176;BME280;63065;51.082;17.016;2023-05-23T09:09:07;99876.93;;;19.27;100.00
56176;BME280;63065;51.082;17.016;2023-05-23T09:11:33;99880.30;;;19.36;100.00
56176;BME280;63065;51.082;17.016;2023-05-23T09:13:58;99881.70;;;19.16;100.00
56176;BME280;63065;51.082;17.016;2023-05-23T09:16:34;99881.84;;;18.99;100.00
56176;BME280;63065;51.082;17.016;2023-05-23T09:18:54;99882.48;;;18.52;100.00
56176;BME280;63065;51.082;17.016;2023-05-23T09:21:14;99881.96;;;18.54;100.00
56176;BME280;63065;51.082;17.016;2023-05-23T09:23:40;99887.34;;;18.38;100.00
56176;BME280;63065;51.082;17.016;2023-05-23T09:26:07;99892.82;;;18.32;100.00
56176;BME280;63065;51.082;17.016;2023-05-23T09:28:32;99899.64;;;18.32;100.00
56176;BME280;63065;51.082;17.016;2023-05-23T09:30:58;99905.09;;;18.29;100.00
56176;BME280;63065;51.082;17.016;2023-05-23T09:33:21;99905.52;;;18.41;100.00
56176;BME280;63065;51.082;17.016;2023-05-23T09:35:47;99906.77;;;18.35;100.00
56176;BME280;63065;51.082;17.016;2023-05-23T09:38:12;99908.51;;;18.21;100.00
56176;BME280;63065;51.082;17.016;2023-05-23T09:40:43;99912.59;;;18.15;100.00
56176;BME280;63065;51.082;17.016;2023-05-23T09:43:04;99914.48;;;18.25;100.00
56176;BME280;63065;51.082;17.016;2023-05-23T09:45:34;99916.19;;;18.37;100.00
56176;BME280;63065;51.082;17.016;2023-05-23T09:47:54;99918.26;;;18.33;100.00
56176;BME280;63065;51.082;17.016;2023-05-23T09:50:20;99919.10;;;18.83;100.00
56176;BME280;63065;51.082;17.016;2023-05-23T09:52:46;99924.13;;;18.39;100.00
56176;BME280;63065;51.082;17.016;2023-05-23T09:55:11;99927.66;;;18.29;100.00
56176;BME280;63065;51.082;17.016;2023-05-23T09:57:40;99928.55;;;18.37;100.00
56176;BME280;63065;51.082;17.016;2023-05-23T10:00:04;99926.12;;;18.25;100.00
56176;BME280;63065;51.082;17.016;2023-05-23T10:04:54;99924.58;;;18.23;100.00
56176;BME280;63065;51.082;17.016;2023-05-23T10:07:19;99926.47;;;18.35;100.00
56176;BME280;63065;51.082;17.016;2023-05-23T10:09:50;99927.08;;;18.41;100.00
56176;BME280;63065;51.082;17.016;2023-05-23T10:14:39;99928.30;;;18.41;100.00
56176;BME280;63065;51.082;17.016;2023-05-23T10:17:07;99930.43;;;18.40;100.00
56176;BME280;63065;51.082;17.016;2023-05-23T10:19:33;99927.98;;;18.59;100.00
56176;BME280;63065;51.082;17.016;2023-05-23T10:21:58;99933.55;;;18.54;100.00
56176;BME280;63065;51.082;17.016;2023-05-23T10:24:19;99933.65;;;18.57;100.00
56176;BME280;63065;51.082;17.016;2023-05-23T10:26:44;99933.04;;;18.85;100.00
56176;BME280;63065;51.082;17.016;2023-05-23T10:29:10;99930.00;;;18.93;100.00
56176;BME280;63065;51.082;17.016;2023-05-23T10:31:35;99927.72;;;18.96;100.00
56176;BME280;63065;51.082;17.016;2023-05-23T10:34:07;99928.90;;;19.16;100.00
56176;BME280;63065;51.082;17.016;2023-05-23T10:36:29;99925.96;;;18.93;100.00
56176;BME280;63065;51.082;17.016;2023-05-23T10:38:54;99924.42;;;19.14;100.00
56176;BME280;63065;51.082;17.016;2023-05-23T10:41:22;99924.03;;;19.56;100.00
56176;BME280;63065;51.082;17.016;2023-05-23T10:43:46;99922.04;;;19.45;100.00
56176;BME280;63065;51.082;17.016;2023-05-23T10:46:07;99920.83;;;19.75;100.00
56176;BME280;63065;51.082;17.016;2023-05-23T10:48:34;99919.59;;;19.60;100.00
56176;BME280;63065;51.082;17.016;2023-05-23T10:51:03;99914.14;;;20.66;100.00
56176;BME280;63065;51.082;17.016;2023-05-23T10:53:24;99905.95;;;19.67;100.00
56176;BME280;63065;51.082;17.016;2023-05-23T10:55:49;99908.95;;;19.59;100.00
56176;BME280;63065;51.082;17.016;2023-05-23T10:58:17;99910.52;;;19.81;100.00
56176;BME280;63065;51.082;17.016;2023-05-23T11:00:51;99908.70;;;20.28;100.00
56176;BME280;63065;51.082;17.016;2023-05-23T11:03:05;99901.88;;;20.02;100.00
56176;BME280;63065;51.082;17.016;2023-05-23T11:05:31;99905.16;;;20.63;100.00
56176;BME280;63065;51.082;17.016;2023-05-23T11:08:06;99901.00;;;20.83;100.00
56176;BME280;63065;51.082;17.016;2023-05-23T11:10:23;99891.88;;;20.49;100.00
56176;BME280;63065;51.082;17.016;2023-05-23T11:12:48;99894.14;;;20.21;100.00
56176;BME280;63065;51.082;17.016;2023-05-23T11:15:19;99891.06;;;20.85;100.00
56176;BME280;63065;51.082;17.016;2023-05-23T11:17:49;99889.01;;;20.55;100.00
56176;BME280;63065;51.082;17.016;2023-05-23T11:20:06;99888.65;;;20.78;100.00
56176;BME280;63065;51.082;17.016;2023-05-23T11:22:31;99886.71;;;21.17;100.00
56176;BME280;63065;51.082;17.016;2023-05-23T11:24:56;99884.53;;;21.23;100.00
56176;BME280;63065;51.082;17.016;2023-05-23T11:27:28;99879.70;;;21.02;100.00
56176;BME280;63065;51.082;17.016;2023-05-23T11:29:55;99880.02;;;21.04;100.00
56176;BME280;63065;51.082;17.016;2023-05-23T11:32:11;99880.92;;;21.06;100.00
56176;BME280;63065;51.082;17.016;2023-05-23T11:34:37;99876.98;;;21.54;100.00
56176;BME280;63065;51.082;17.016;2023-05-23T11:37:02;99875.50;;;21.50;100.00
56176;BME280;63065;51.082;17.016;2023-05-23T11:39:27;99874.94;;;21.20;100.00
56176;BME280;63065;51.082;17.016;2023-05-23T11:41:59;99872.39;;;21.42;100.00
56176;BME280;63065;51.082;17.016;2023-05-23T11:44:18;99870.29;;;21.32;100.00
56176;BME280;63065;51.082;17.016;2023-05-23T11:49:11;99868.84;;;21.60;100.00
56176;BME280;63065;51.082;17.016;2023-05-23T11:51:35;99865.69;;;21.12;100.00
56176;BME280;63065;51.082;17.016;2023-05-23T11:54:00;99863.68;;;21.57;100.00
56176;BME280;63065;51.082;17.016;2023-05-23T11:56:26;99864.65;;;21.64;100.00
56176;BME280;63065;51.082;17.016;2023-05-23T11:58:51;99868.36;;;21.69;100.00
56176;BME280;63065;51.082;17.016;2023-05-23T12:01:16;99865.54;;;21.60;100.00
56176;BME280;63065;51.082;17.016;2023-05-23T12:03:47;99868.41;;;21.58;100.00
56176;BME280;63065;51.082;17.016;2023-05-23T12:06:07;99869.86;;;21.58;100.00
56176;BME280;63065;51.082;17.016;2023-05-23T12:08:32;99872.86;;;21.78;100.00
56176;BME280;63065;51.082;17.016;2023-05-23T12:10:59;99878.61;;;21.97;100.00
56176;BME280;63065;51.082;17.016;2023-05-23T12:13:26;99879.15;;;22.13;100.00
56176;BME280;63065;51.082;17.016;2023-05-23T12:15:48;99869.56;;;21.11;100.00
56176;BME280;63065;51.082;17.016;2023-05-23T12:18:13;99867.53;;;21.35;100.00
56176;BME280;63065;51.082;17.016;2023-05-23T12:20:40;99869.32;;;21.68;100.00
56176;BME280;63065;51.082;17.016;2023-05-23T12:23:18;99867.84;;;21.36;100.00
56176;BME280;63065;51.082;17.016;2023-05-23T12:25:37;99866.26;;;20.92;100.00
56176;BME280;63065;51.082;17.016;2023-05-23T12:27:56;99871.55;;;20.69;100.00
56176;BME280;63065;51.082;17.016;2023-05-23T12:30:21;99872.07;;;21.02;100.00
56176;BME280;63065;51.082;17.016;2023-05-23T12:32:47;99869.76;;;20.83;100.00
56176;BME280;63065;51.082;17.016;2023-05-23T12:35:13;99869.98;;;21.74;100.00